sensor_id;sensor_type;location;lat;lon;timestamp;P1;durP1;ratioP1;P2;durP2;ratioP2
10154;SDS011;5118;48.570;7.916;2024-03-02T00:01:57;6.13;;;5.53;;
10154;SDS011;5118;48.570;7.916;2024-03-02T00:04:25;6.50;;;5.63;;
10154;SDS011;5118;48.570;7.916;2024-03-02T00:06:54;6.30;;;5.70;;
10154;SDS011;5118;48.570;7.916;2024-03-02T00:09:23;5.63;;;5.13;;
10154;SDS011;5118;48.570;7.916;2024-03-02T00:11:52;6.87;;;5.70;;
10154;SDS011;5118;48.570;7.916;2024-03-02T00:14:20;6.00;;;5.40;;
10154;SDS011;5118;48.570;7.916;2024-03-02T00:17:04;6.10;;;5.40;;
10154;SDS011;5118;48.570;7.916;2024-03-02T00:19:33;7.60;;;5.80;;
10154;SDS011;5118;48.570;7.916;2024-03-02T00:22:01;6.57;;;5.33;;
10154;SDS011;5118;48.570;7.916;2024-03-02T00:24:31;6.73;;;5.87;;
10154;SDS011;5118;48.570;7.916;2024-03-02T00:27:01;5.20;;;4.70;;
10154;SDS011;5118;48.570;7.916;2024-03-02T00:29:34;6.10;;;5.20;;
10154;SDS011;5118;48.570;7.916;2024-03-02T00:32:05;5.73;;;5.23;;
10154;SDS011;5118;48.570;7.916;2024-03-02T00:34:40;7.17;;;5.13;;
10154;SDS011;5118;48.570;7.916;2024-03-02T00:37:09;6.20;;;5.07;;
10154;SDS011;5118;48.570;7.916;2024-03-02T00:39:38;4.53;;;4.10;;
10154;SDS011;5118;48.570;7.916;2024-03-02T00:42:07;7.37;;;4.50;;
10154;SDS011;5118;48.570;7.916;2024-03-02T00:44:35;5.80;;;4.47;;
10154;SDS011;5118;48.570;7.916;2024-03-02T00:47:05;8.47;;;5.53;;
10154;SDS011;5118;48.570;7.916;2024-03-02T00:49:34;5.10;;;4.60;;
10154;SDS011;5118;48.570;7.916;2024-03-02T00:52:06;5.97;;;4.80;;
10154;SDS011;5118;48.570;7.916;2024-03-02T00:54:35;6.20;;;5.00;;
10154;SDS011;5118;48.570;7.916;2024-03-02T00:57:03;5.40;;;4.50;;
10154;SDS011;5118;48.570;7.916;2024-03-02T00:59:32;4.83;;;4.17;;
10154;SDS011;5118;48.570;7.916;2024-03-02T01:02:00;4.93;;;4.43;;
10154;SDS011;5118;48.570;7.916;2024-03-02T01:04:30;5.33;;;4.80;;
10154;SDS011;5118;48.570;7.916;2024-03-02T01:06:58;5.57;;;4.50;;
10154;SDS011;5118;48.570;7.916;2024-03-02T01:09:27;4.57;;;4.07;;
10154;SDS011;5118;48.570;7.916;2024-03-02T01:11:55;5.07;;;4.13;;
10154;SDS011;5118;48.570;7.916;2024-03-02T01:14:25;5.87;;;4.67;;
10154;SDS011;5118;48.570;7.916;2024-03-02T01:16:53;4.87;;;4.20;;
10154;SDS011;5118;48.570;7.916;2024-03-02T01:19:21;6.63;;;4.70;;
10154;SDS011;5118;48.570;7.916;2024-03-02T01:21:51;6.73;;;5.80;;
10154;SDS011;5118;48.570;7.916;2024-03-02T01:24:19;7.27;;;5.70;;
10154;SDS011;5118;48.570;7.916;2024-03-02T01:26:47;6.97;;;4.67;;
10154;SDS011;5118;48.570;7.916;2024-03-02T01:29:15;6.43;;;4.30;;
10154;SDS011;5118;48.570;7.916;2024-03-02T01:31:44;5.03;;;4.53;;
10154;SDS011;5118;48.570;7.916;2024-03-02T01:34:13;5.57;;;4.40;;
10154;SDS011;5118;48.570;7.916;2024-03-02T01:36:41;5.03;;;4.30;;
10154;SDS011;5118;48.570;7.916;2024-03-02T01:39:11;4.70;;;4.10;;
10154;SDS011;5118;48.570;7.916;2024-03-02T01:41:40;4.97;;;3.90;;
10154;SDS011;5118;48.570;7.916;2024-03-02T01:44:08;3.73;;;3.17;;
10154;SDS011;5118;48.570;7.916;2024-03-02T01:46:37;4.60;;;3.03;;
10154;SDS011;5118;48.570;7.916;2024-03-02T01:49:06;3.90;;;3.43;;
10154;SDS011;5118;48.570;7.916;2024-03-02T01:51:34;3.90;;;3.17;;
10154;SDS011;5118;48.570;7.916;2024-03-02T01:54:03;3.43;;;3.13;;
10154;SDS011;5118;48.570;7.916;2024-03-02T01:56:33;3.40;;;3.10;;
10154;SDS011;5118;48.570;7.916;2024-03-02T01:59:01;3.40;;;3.07;;
10154;SDS011;5118;48.570;7.916;2024-03-02T02:01:29;3.50;;;3.13;;
10154;SDS011;5118;48.570;7.916;2024-03-02T02:03:59;3.43;;;3.10;;
10154;SDS011;5118;48.570;7.916;2024-03-02T02:06:27;3.43;;;3.13;;
10154;SDS011;5118;48.570;7.916;2024-03-02T02:08:56;4.03;;;3.33;;
10154;SDS011;5118;48.570;7.916;2024-03-02T02:11:24;3.97;;;3.37;;
10154;SDS011;5118;48.570;7.916;2024-03-02T02:13:54;5.63;;;3.80;;
10154;SDS011;5118;48.570;7.916;2024-03-02T02:16:23;3.37;;;3.07;;
10154;SDS011;5118;48.570;7.916;2024-03-02T02:18:51;3.63;;;3.13;;
10154;SDS011;5118;48.570;7.916;2024-03-02T02:21:23;3.30;;;3.00;;
10154;SDS011;5118;48.570;7.916;2024-03-02T02:23:52;3.70;;;3.40;;
10154;SDS011;5118;48.570;7.916;2024-03-02T02:26:20;4.90;;;3.90;;
10154;SDS011;5118;48.570;7.916;2024-03-02T02:28:49;4.67;;;4.10;;
10154;SDS011;5118;48.570;7.916;2024-03-02T02:31:17;5.60;;;5.00;;
10154;SDS011;5118;48.570;7.916;2024-03-02T02:33:46;5.10;;;4.60;;
10154;SDS011;5118;48.570;7.916;2024-03-02T02:36:14;4.90;;;4.40;;
10154;SDS011;5118;48.570;7.916;2024-03-02T02:38:45;5.83;;;5.23;;
10154;SDS011;5118;48.570;7.916;2024-03-02T02:41:16;4.63;;;4.23;;
10154;SDS011;5118;48.570;7.916;2024-03-02T02:43:45;5.50;;;4.20;;
10154;SDS011;5118;48.570;7.916;2024-03-02T02:46:13;4.77;;;4.17;;
10154;SDS011;5118;48.570;7.916;2024-03-02T02:48:43;3.83;;;3.43;;
10154;SDS011;5118;48.570;7.916;2024-03-02T02:51:12;4.17;;;3.50;;
10154;SDS011;5118;48.570;7.916;2024-03-02T02:53:40;4.23;;;3.23;;
10154;SDS011;5118;48.570;7.916;2024-03-02T02:56:10;4.03;;;3.63;;
10154;SDS011;5118;48.570;7.916;2024-03-02T02:58:39;5.33;;;3.80;;
10154;SDS011;5118;48.570;7.916;2024-03-02T03:01:08;5.57;;;4.20;;
10154;SDS011;5118;48.570;7.916;2024-03-02T03:03:37;4.90;;;4.40;;
10154;SDS011;5118;48.570;7.916;2024-03-02T03:06:07;4.67;;;3.80;;
10154;SDS011;5118;48.570;7.916;2024-03-02T03:08:36;4.63;;;4.00;;
10154;SDS011;5118;48.570;7.916;2024-03-02T03:11:04;5.27;;;4.00;;
10154;SDS011;5118;48.570;7.916;2024-03-02T03:13:34;4.83;;;4.00;;
10154;SDS011;5118;48.570;7.916;2024-03-02T03:16:03;7.40;;;4.10;;
10154;SDS011;5118;48.570;7.916;2024-03-02T03:18:32;3.90;;;3.50;;
10154;SDS011;5118;48.570;7.916;2024-03-02T03:21:00;4.80;;;4.00;;
10154;SDS011;5118;48.570;7.916;2024-03-02T03:23:29;5.23;;;4.00;;
10154;SDS011;5118;48.570;7.916;2024-03-02T03:25:58;4.43;;;3.90;;
10154;SDS011;5118;48.570;7.916;2024-03-02T03:28:27;3.70;;;3.40;;
10154;SDS011;5118;48.570;7.916;2024-03-02T03:30:57;3.53;;;3.17;;
10154;SDS011;5118;48.570;7.916;2024-03-02T03:33:25;5.97;;;3.40;;
10154;SDS011;5118;48.570;7.916;2024-03-02T03:35:54;4.87;;;3.50;;
10154;SDS011;5118;48.570;7.916;2024-03-02T03:38:22;4.50;;;3.67;;
10154;SDS011;5118;48.570;7.916;2024-03-02T03:40:50;5.10;;;4.00;;
10154;SDS011;5118;48.570;7.916;2024-03-02T03:43:18;6.57;;;4.60;;
10154;SDS011;5118;48.570;7.916;2024-03-02T03:45:47;4.77;;;4.10;;
10154;SDS011;5118;48.570;7.916;2024-03-02T03:48:16;4.33;;;3.30;;
10154;SDS011;5118;48.570;7.916;2024-03-02T03:50:45;3.33;;;3.03;;
10154;SDS011;5118;48.570;7.916;2024-03-02T03:53:14;3.30;;;3.00;;
10154;SDS011;5118;48.570;7.916;2024-03-02T03:55:42;3.33;;;3.03;;
10154;SDS011;5118;48.570;7.916;2024-03-02T03:58:13;5.63;;;3.23;;
10154;SDS011;5118;48.570;7.916;2024-03-02T04:00:43;4.17;;;3.07;;
10154;SDS011;5118;48.570;7.916;2024-03-02T04:03:11;3.50;;;3.20;;
10154;SDS011;5118;48.570;7.916;2024-03-02T04:05:44;3.47;;;3.17;;
10154;SDS011;5118;48.570;7.916;2024-03-02T04:08:13;3.67;;;3.10;;
10154;SDS011;5118;48.570;7.916;2024-03-02T04:10:42;3.60;;;3.30;;
10154;SDS011;5118;48.570;7.916;2024-03-02T04:13:10;3.90;;;3.40;;
10154;SDS011;5118;48.570;7.916;2024-03-02T04:15:40;4.43;;;3.70;;
10154;SDS011;5118;48.570;7.916;2024-03-02T04:18:08;7.43;;;4.50;;
10154;SDS011;5118;48.570;7.916;2024-03-02T04:20:36;4.97;;;4.20;;
10154;SDS011;5118;48.570;7.916;2024-03-02T04:23:06;6.80;;;4.97;;
10154;SDS011;5118;48.570;7.916;2024-03-02T04:25:34;6.07;;;5.10;;
10154;SDS011;5118;48.570;7.916;2024-03-02T04:28:03;6.27;;;5.40;;
10154;SDS011;5118;48.570;7.916;2024-03-02T04:30:31;6.60;;;5.40;;
10154;SDS011;5118;48.570;7.916;2024-03-02T04:33:00;6.00;;;5.40;;
10154;SDS011;5118;48.570;7.916;2024-03-02T04:35:30;6.97;;;4.90;;
10154;SDS011;5118;48.570;7.916;2024-03-02T04:37:59;5.00;;;4.50;;
10154;SDS011;5118;48.570;7.916;2024-03-02T04:40:29;5.10;;;4.47;;
10154;SDS011;5118;48.570;7.916;2024-03-02T04:42:58;5.37;;;4.80;;
10154;SDS011;5118;48.570;7.916;2024-03-02T04:45:27;5.70;;;5.10;;
10154;SDS011;5118;48.570;7.916;2024-03-02T04:47:56;4.50;;;4.07;;
10154;SDS011;5118;48.570;7.916;2024-03-02T04:50:24;5.03;;;4.03;;
10154;SDS011;5118;48.570;7.916;2024-03-02T04:52:53;5.77;;;4.47;;
10154;SDS011;5118;48.570;7.916;2024-03-02T04:55:21;5.37;;;4.40;;
10154;SDS011;5118;48.570;7.916;2024-03-02T04:58:26;6.57;;;5.00;;
10154;SDS011;5118;48.570;7.916;2024-03-02T05:00:54;6.27;;;4.93;;
10154;SDS011;5118;48.570;7.916;2024-03-02T05:03:23;6.87;;;5.50;;
10154;SDS011;5118;48.570;7.916;2024-03-02T05:05:52;8.57;;;5.73;;
10154;SDS011;5118;48.570;7.916;2024-03-02T05:08:21;8.53;;;6.33;;
10154;SDS011;5118;48.570;7.916;2024-03-02T05:10:49;8.23;;;6.73;;
10154;SDS011;5118;48.570;7.916;2024-03-02T05:13:18;8.60;;;6.93;;
10154;SDS011;5118;48.570;7.916;2024-03-02T05:15:49;9.77;;;7.77;;
10154;SDS011;5118;48.570;7.916;2024-03-02T05:18:17;11.93;;;7.83;;
10154;SDS011;5118;48.570;7.916;2024-03-02T05:20:46;12.97;;;9.10;;
10154;SDS011;5118;48.570;7.916;2024-03-02T05:23:14;9.37;;;7.27;;
10154;SDS011;5118;48.570;7.916;2024-03-02T05:25:42;7.87;;;6.70;;
10154;SDS011;5118;48.570;7.916;2024-03-02T05:28:12;9.13;;;7.40;;
10154;SDS011;5118;48.570;7.916;2024-03-02T05:30:42;9.93;;;7.57;;
10154;SDS011;5118;48.570;7.916;2024-03-02T05:33:12;7.90;;;6.80;;
10154;SDS011;5118;48.570;7.916;2024-03-02T05:35:40;10.73;;;7.60;;
10154;SDS011;5118;48.570;7.916;2024-03-02T05:38:09;11.10;;;8.00;;
10154;SDS011;5118;48.570;7.916;2024-03-02T05:40:37;8.67;;;6.90;;
10154;SDS011;5118;48.570;7.916;2024-03-02T05:43:08;8.03;;;6.80;;
10154;SDS011;5118;48.570;7.916;2024-03-02T05:45:36;6.20;;;5.60;;
10154;SDS011;5118;48.570;7.916;2024-03-02T05:48:06;8.57;;;6.37;;
10154;SDS011;5118;48.570;7.916;2024-03-02T05:50:39;9.50;;;7.33;;
10154;SDS011;5118;48.570;7.916;2024-03-02T05:53:07;10.30;;;8.70;;
10154;SDS011;5118;48.570;7.916;2024-03-02T05:55:36;10.57;;;8.17;;
10154;SDS011;5118;48.570;7.916;2024-03-02T05:58:04;11.20;;;8.90;;
10154;SDS011;5118;48.570;7.916;2024-03-02T06:00:50;14.10;;;9.07;;
10154;SDS011;5118;48.570;7.916;2024-03-02T06:03:18;12.60;;;9.67;;
10154;SDS011;5118;48.570;7.916;2024-03-02T06:05:48;12.17;;;10.37;;
10154;SDS011;5118;48.570;7.916;2024-03-02T06:08:17;12.07;;;10.20;;
10154;SDS011;5118;48.570;7.916;2024-03-02T06:10:45;10.50;;;8.53;;
10154;SDS011;5118;48.570;7.916;2024-03-02T06:13:14;12.80;;;8.20;;
10154;SDS011;5118;48.570;7.916;2024-03-02T06:15:43;8.27;;;7.27;;
10154;SDS011;5118;48.570;7.916;2024-03-02T06:18:11;10.13;;;7.93;;
10154;SDS011;5118;48.570;7.916;2024-03-02T06:20:39;6.87;;;6.13;;
10154;SDS011;5118;48.570;7.916;2024-03-02T06:23:09;4.63;;;3.80;;
10154;SDS011;5118;48.570;7.916;2024-03-02T06:25:37;5.27;;;3.93;;
10154;SDS011;5118;48.570;7.916;2024-03-02T06:28:06;6.00;;;3.97;;
10154;SDS011;5118;48.570;7.916;2024-03-02T06:30:34;8.03;;;6.07;;
10154;SDS011;5118;48.570;7.916;2024-03-02T06:33:02;4.30;;;3.90;;
10154;SDS011;5118;48.570;7.916;2024-03-02T06:35:32;7.53;;;6.30;;
10154;SDS011;5118;48.570;7.916;2024-03-02T06:38:01;7.90;;;6.87;;
10154;SDS011;5118;48.570;7.916;2024-03-02T06:40:32;10.90;;;9.27;;
10154;SDS011;5118;48.570;7.916;2024-03-02T06:43:00;11.83;;;10.37;;
10154;SDS011;5118;48.570;7.916;2024-03-02T06:45:29;15.23;;;13.63;;
10154;SDS011;5118;48.570;7.916;2024-03-02T06:47:58;13.03;;;11.73;;
10154;SDS011;5118;48.570;7.916;2024-03-02T06:50:27;19.00;;;16.10;;
10154;SDS011;5118;48.570;7.916;2024-03-02T06:52:56;19.63;;;16.83;;
10154;SDS011;5118;48.570;7.916;2024-03-02T06:55:24;19.93;;;17.47;;
10154;SDS011;5118;48.570;7.916;2024-03-02T06:57:54;18.07;;;14.47;;
10154;SDS011;5118;48.570;7.916;2024-03-02T07:00:23;18.57;;;15.43;;
10154;SDS011;5118;48.570;7.916;2024-03-02T07:02:51;15.53;;;12.47;;
10154;SDS011;5118;48.570;7.916;2024-03-02T07:05:20;16.43;;;11.67;;
10154;SDS011;5118;48.570;7.916;2024-03-02T07:07:48;14.23;;;12.37;;
10154;SDS011;5118;48.570;7.916;2024-03-02T07:10:17;13.83;;;11.67;;
10154;SDS011;5118;48.570;7.916;2024-03-02T07:12:46;16.30;;;12.53;;
10154;SDS011;5118;48.570;7.916;2024-03-02T07:15:16;31.07;;;23.67;;
10154;SDS011;5118;48.570;7.916;2024-03-02T07:18:10;16.50;;;14.70;;
10154;SDS011;5118;48.570;7.916;2024-03-02T07:20:38;18.03;;;14.77;;
10154;SDS011;5118;48.570;7.916;2024-03-02T07:23:07;18.77;;;15.37;;
10154;SDS011;5118;48.570;7.916;2024-03-02T07:25:36;16.23;;;12.63;;
10154;SDS011;5118;48.570;7.916;2024-03-02T07:28:08;12.47;;;10.97;;
10154;SDS011;5118;48.570;7.916;2024-03-02T07:30:38;10.70;;;9.53;;
10154;SDS011;5118;48.570;7.916;2024-03-02T07:33:06;15.30;;;13.70;;
10154;SDS011;5118;48.570;7.916;2024-03-02T07:35:35;12.97;;;11.27;;
10154;SDS011;5118;48.570;7.916;2024-03-02T07:38:04;11.03;;;9.83;;
10154;SDS011;5118;48.570;7.916;2024-03-02T07:40:33;9.77;;;8.77;;
10154;SDS011;5118;48.570;7.916;2024-03-02T07:43:01;10.07;;;9.07;;
10154;SDS011;5118;48.570;7.916;2024-03-02T07:45:30;9.13;;;5.43;;
10154;SDS011;5118;48.570;7.916;2024-03-02T07:48:00;8.07;;;5.23;;
10154;SDS011;5118;48.570;7.916;2024-03-02T07:50:30;6.67;;;5.33;;
10154;SDS011;5118;48.570;7.916;2024-03-02T07:53:01;5.97;;;4.93;;
10154;SDS011;5118;48.570;7.916;2024-03-02T07:55:30;6.13;;;5.03;;
10154;SDS011;5118;48.570;7.916;2024-03-02T07:57:58;6.37;;;5.40;;
10154;SDS011;5118;48.570;7.916;2024-03-02T08:00:27;5.70;;;4.70;;
10154;SDS011;5118;48.570;7.916;2024-03-02T08:02:56;5.60;;;5.10;;
10154;SDS011;5118;48.570;7.916;2024-03-02T08:05:26;5.33;;;4.30;;
10154;SDS011;5118;48.570;7.916;2024-03-02T08:07:55;7.03;;;4.40;;
10154;SDS011;5118;48.570;7.916;2024-03-02T08:10:24;5.00;;;4.07;;
10154;SDS011;5118;48.570;7.916;2024-03-02T08:12:52;4.43;;;4.00;;
10154;SDS011;5118;48.570;7.916;2024-03-02T08:15:21;4.77;;;3.80;;
10154;SDS011;5118;48.570;7.916;2024-03-02T08:17:50;4.40;;;3.90;;
10154;SDS011;5118;48.570;7.916;2024-03-02T08:20:19;4.80;;;3.97;;
10154;SDS011;5118;48.570;7.916;2024-03-02T08:22:48;4.10;;;3.37;;
10154;SDS011;5118;48.570;7.916;2024-03-02T08:25:17;4.30;;;3.10;;
10154;SDS011;5118;48.570;7.916;2024-03-02T08:27:45;3.33;;;3.03;;
10154;SDS011;5118;48.570;7.916;2024-03-02T08:30:14;3.40;;;3.10;;
10154;SDS011;5118;48.570;7.916;2024-03-02T08:32:43;7.80;;;5.43;;
10154;SDS011;5118;48.570;7.916;2024-03-02T08:35:14;8.20;;;6.37;;
10154;SDS011;5118;48.570;7.916;2024-03-02T08:37:43;3.13;;;2.83;;
10154;SDS011;5118;48.570;7.916;2024-03-02T08:40:13;3.83;;;3.50;;
10154;SDS011;5118;48.570;7.916;2024-03-02T08:42:45;5.43;;;4.10;;
10154;SDS011;5118;48.570;7.916;2024-03-02T08:45:14;4.10;;;3.70;;
10154;SDS011;5118;48.570;7.916;2024-03-02T08:47:43;5.00;;;3.97;;
10154;SDS011;5118;48.570;7.916;2024-03-02T08:50:12;4.57;;;3.97;;
10154;SDS011;5118;48.570;7.916;2024-03-02T08:52:43;5.90;;;5.03;;
10154;SDS011;5118;48.570;7.916;2024-03-02T08:55:11;8.70;;;7.17;;
10154;SDS011;5118;48.570;7.916;2024-03-02T08:57:41;7.70;;;5.43;;
10154;SDS011;5118;48.570;7.916;2024-03-02T09:00:10;7.23;;;4.97;;
10154;SDS011;5118;48.570;7.916;2024-03-02T09:02:39;5.10;;;4.30;;
10154;SDS011;5118;48.570;7.916;2024-03-02T09:05:07;5.00;;;4.50;;
10154;SDS011;5118;48.570;7.916;2024-03-02T09:07:36;5.30;;;4.80;;
10154;SDS011;5118;48.570;7.916;2024-03-02T09:10:05;6.27;;;5.10;;
10154;SDS011;5118;48.570;7.916;2024-03-02T09:12:36;5.90;;;5.30;;
10154;SDS011;5118;48.570;7.916;2024-03-02T09:15:06;5.50;;;5.00;;
10154;SDS011;5118;48.570;7.916;2024-03-02T09:17:35;7.70;;;5.70;;
10154;SDS011;5118;48.570;7.916;2024-03-02T09:20:04;7.20;;;6.50;;
10154;SDS011;5118;48.570;7.916;2024-03-02T09:22:33;4.47;;;4.07;;
10154;SDS011;5118;48.570;7.916;2024-03-02T09:25:01;5.43;;;4.93;;
10154;SDS011;5118;48.570;7.916;2024-03-02T09:27:30;5.20;;;4.70;;
10154;SDS011;5118;48.570;7.916;2024-03-02T09:29:59;4.87;;;4.47;;
10154;SDS011;5118;48.570;7.916;2024-03-02T09:32:29;5.10;;;4.60;;
10154;SDS011;5118;48.570;7.916;2024-03-02T09:34:59;5.93;;;5.13;;
10154;SDS011;5118;48.570;7.916;2024-03-02T09:37:27;5.03;;;4.60;;
10154;SDS011;5118;48.570;7.916;2024-03-02T09:39:56;6.03;;;4.40;;
10154;SDS011;5118;48.570;7.916;2024-03-02T09:42:26;3.90;;;3.50;;
10154;SDS011;5118;48.570;7.916;2024-03-02T09:44:54;4.17;;;3.60;;
10154;SDS011;5118;48.570;7.916;2024-03-02T09:47:24;3.60;;;3.30;;
10154;SDS011;5118;48.570;7.916;2024-03-02T09:49:53;4.10;;;3.70;;
10154;SDS011;5118;48.570;7.916;2024-03-02T09:52:22;4.17;;;3.07;;
10154;SDS011;5118;48.570;7.916;2024-03-02T09:54:50;3.47;;;3.17;;
10154;SDS011;5118;48.570;7.916;2024-03-02T09:57:19;3.53;;;3.00;;
10154;SDS011;5118;48.570;7.916;2024-03-02T09:59:47;4.97;;;4.23;;
10154;SDS011;5118;48.570;7.916;2024-03-02T10:02:16;8.87;;;6.70;;
10154;SDS011;5118;48.570;7.916;2024-03-02T10:04:47;5.97;;;4.97;;
10154;SDS011;5118;48.570;7.916;2024-03-02T10:07:17;7.17;;;5.53;;
10154;SDS011;5118;48.570;7.916;2024-03-02T10:09:47;6.00;;;5.40;;
10154;SDS011;5118;48.570;7.916;2024-03-02T10:12:17;5.83;;;4.20;;
10154;SDS011;5118;48.570;7.916;2024-03-02T10:14:46;5.73;;;5.00;;
10154;SDS011;5118;48.570;7.916;2024-03-02T10:17:16;5.33;;;4.80;;
10154;SDS011;5118;48.570;7.916;2024-03-02T10:19:47;5.83;;;4.70;;
10154;SDS011;5118;48.570;7.916;2024-03-02T10:22:15;5.40;;;4.63;;
10154;SDS011;5118;48.570;7.916;2024-03-02T10:24:43;4.17;;;3.77;;
10154;SDS011;5118;48.570;7.916;2024-03-02T10:27:15;3.83;;;3.53;;
10154;SDS011;5118;48.570;7.916;2024-03-02T10:29:45;5.50;;;3.77;;
10154;SDS011;5118;48.570;7.916;2024-03-02T10:32:15;3.97;;;3.43;;
10154;SDS011;5118;48.570;7.916;2024-03-02T10:34:44;4.67;;;3.50;;
10154;SDS011;5118;48.570;7.916;2024-03-02T10:37:17;4.17;;;3.70;;
10154;SDS011;5118;48.570;7.916;2024-03-02T10:39:51;3.97;;;3.60;;
10154;SDS011;5118;48.570;7.916;2024-03-02T10:42:20;4.47;;;3.50;;
10154;SDS011;5118;48.570;7.916;2024-03-02T10:44:52;4.07;;;3.63;;
10154;SDS011;5118;48.570;7.916;2024-03-02T10:47:21;3.97;;;3.57;;
10154;SDS011;5118;48.570;7.916;2024-03-02T10:49:55;4.77;;;3.63;;
10154;SDS011;5118;48.570;7.916;2024-03-02T10:52:27;3.80;;;3.47;;
10154;SDS011;5118;48.570;7.916;2024-03-02T10:54:55;3.65;;;3.22;;
10154;SDS011;5118;48.570;7.916;2024-03-02T10:57:25;3.10;;;2.80;;
10154;SDS011;5118;48.570;7.916;2024-03-02T11:00:01;2.70;;;2.50;;
10154;SDS011;5118;48.570;7.916;2024-03-02T11:02:32;3.30;;;3.00;;
10154;SDS011;5118;48.570;7.916;2024-03-02T11:05:07;3.42;;;3.13;;
10154;SDS011;5118;48.570;7.916;2024-03-02T11:07:41;3.33;;;3.03;;
10154;SDS011;5118;48.570;7.916;2024-03-02T11:10:10;2.70;;;2.50;;
10154;SDS011;5118;48.570;7.916;2024-03-02T11:12:50;2.80;;;2.60;;
10154;SDS011;5118;48.570;7.916;2024-03-02T11:15:24;3.08;;;2.60;;
10154;SDS011;5118;48.570;7.916;2024-03-02T11:17:53;2.58;;;1.90;;
10154;SDS011;5118;48.570;7.916;2024-03-02T11:20:25;2.85;;;2.20;;
10154;SDS011;5118;48.570;7.916;2024-03-02T11:22:55;1.70;;;1.60;;
10154;SDS011;5118;48.570;7.916;2024-03-02T11:25:24;1.92;;;1.83;;
10154;SDS011;5118;48.570;7.916;2024-03-02T11:28:00;2.05;;;1.95;;
10154;SDS011;5118;48.570;7.916;2024-03-02T11:30:51;1.80;;;1.70;;
10154;SDS011;5118;48.570;7.916;2024-03-02T11:33:24;2.55;;;1.80;;
10154;SDS011;5118;48.570;7.916;2024-03-02T11:35:58;2.17;;;1.98;;
10154;SDS011;5118;48.570;7.916;2024-03-02T11:38:32;2.10;;;1.90;;
10154;SDS011;5118;48.570;7.916;2024-03-02T11:41:02;3.30;;;2.00;;
10154;SDS011;5118;48.570;7.916;2024-03-02T11:43:35;1.63;;;1.52;;
10154;SDS011;5118;48.570;7.916;2024-03-02T11:46:06;1.40;;;1.30;;
10154;SDS011;5118;48.570;7.916;2024-03-02T11:48:35;1.90;;;1.80;;
10154;SDS011;5118;48.570;7.916;2024-03-02T11:51:09;1.70;;;1.60;;
10154;SDS011;5118;48.570;7.916;2024-03-02T11:53:39;1.65;;;1.55;;
10154;SDS011;5118;48.570;7.916;2024-03-02T11:56:09;1.60;;;1.50;;
10154;SDS011;5118;48.570;7.916;2024-03-02T11:58:40;3.20;;;3.00;;
10154;SDS011;5118;48.570;7.916;2024-03-02T12:01:10;6.05;;;5.55;;
10154;SDS011;5118;48.570;7.916;2024-03-02T12:03:41;3.85;;;3.55;;
10154;SDS011;5118;48.570;7.916;2024-03-02T12:06:10;3.67;;;3.38;;
10154;SDS011;5118;48.570;7.916;2024-03-02T12:08:40;5.00;;;4.60;;
10154;SDS011;5118;48.570;7.916;2024-03-02T12:11:12;5.30;;;4.80;;
10154;SDS011;5118;48.570;7.916;2024-03-02T12:13:51;3.60;;;3.30;;
10154;SDS011;5118;48.570;7.916;2024-03-02T12:16:22;2.13;;;2.03;;
10154;SDS011;5118;48.570;7.916;2024-03-02T12:18:51;3.30;;;2.55;;
10154;SDS011;5118;48.570;7.916;2024-03-02T12:21:21;3.35;;;2.20;;
10154;SDS011;5118;48.570;7.916;2024-03-02T12:23:49;2.65;;;1.90;;
10154;SDS011;5118;48.570;7.916;2024-03-02T12:26:18;2.25;;;1.80;;
10154;SDS011;5118;48.570;7.916;2024-03-02T12:28:46;1.60;;;1.50;;
10154;SDS011;5118;48.570;7.916;2024-03-02T12:31:15;2.00;;;1.80;;
10154;SDS011;5118;48.570;7.916;2024-03-02T12:33:44;1.80;;;1.70;;
10154;SDS011;5118;48.570;7.916;2024-03-02T12:36:13;2.05;;;1.50;;
10154;SDS011;5118;48.570;7.916;2024-03-02T12:38:44;2.30;;;2.10;;
10154;SDS011;5118;48.570;7.916;2024-03-02T12:41:15;1.70;;;1.60;;
10154;SDS011;5118;48.570;7.916;2024-03-02T12:43:43;2.30;;;2.15;;
10154;SDS011;5118;48.570;7.916;2024-03-02T12:46:12;1.83;;;1.60;;
10154;SDS011;5118;48.570;7.916;2024-03-02T12:48:42;2.00;;;1.80;;
10154;SDS011;5118;48.570;7.916;2024-03-02T12:51:11;1.88;;;1.73;;
10154;SDS011;5118;48.570;7.916;2024-03-02T12:53:39;1.92;;;1.77;;
10154;SDS011;5118;48.570;7.916;2024-03-02T12:56:09;2.42;;;1.60;;
10154;SDS011;5118;48.570;7.916;2024-03-02T12:58:38;1.65;;;1.55;;
10154;SDS011;5118;48.570;7.916;2024-03-02T13:01:08;1.90;;;1.50;;
10154;SDS011;5118;48.570;7.916;2024-03-02T13:03:37;1.50;;;1.40;;
10154;SDS011;5118;48.570;7.916;2024-03-02T13:06:06;1.60;;;1.50;;
10154;SDS011;5118;48.570;7.916;2024-03-02T13:08:35;1.52;;;1.40;;
10154;SDS011;5118;48.570;7.916;2024-03-02T13:11:03;1.50;;;1.40;;
10154;SDS011;5118;48.570;7.916;2024-03-02T13:13:35;1.48;;;1.38;;
10154;SDS011;5118;48.570;7.916;2024-03-02T13:16:06;2.15;;;1.20;;
10154;SDS011;5118;48.570;7.916;2024-03-02T13:18:38;0.90;;;0.90;;
10154;SDS011;5118;48.570;7.916;2024-03-02T13:21:07;1.98;;;1.10;;
10154;SDS011;5118;48.570;7.916;2024-03-02T13:23:36;1.23;;;1.13;;
10154;SDS011;5118;48.570;7.916;2024-03-02T13:26:04;1.40;;;1.30;;
10154;SDS011;5118;48.570;7.916;2024-03-02T13:28:35;1.20;;;1.20;;
10154;SDS011;5118;48.570;7.916;2024-03-02T13:31:04;0.90;;;0.90;;
10154;SDS011;5118;48.570;7.916;2024-03-02T13:33:34;1.00;;;0.90;;
10154;SDS011;5118;48.570;7.916;2024-03-02T13:36:03;1.60;;;1.50;;
10154;SDS011;5118;48.570;7.916;2024-03-02T13:38:31;3.15;;;2.00;;
10154;SDS011;5118;48.570;7.916;2024-03-02T13:41:00;1.30;;;1.20;;
10154;SDS011;5118;48.570;7.916;2024-03-02T13:43:28;0.80;;;0.80;;
10154;SDS011;5118;48.570;7.916;2024-03-02T13:46:00;1.25;;;1.23;;
10154;SDS011;5118;48.570;7.916;2024-03-02T13:48:29;1.25;;;1.15;;
10154;SDS011;5118;48.570;7.916;2024-03-02T13:50:58;1.15;;;0.93;;
10154;SDS011;5118;48.570;7.916;2024-03-02T13:53:27;1.42;;;1.33;;
10154;SDS011;5118;48.570;7.916;2024-03-02T13:55:55;1.13;;;1.10;;
10154;SDS011;5118;48.570;7.916;2024-03-02T13:58:24;1.40;;;1.30;;
10154;SDS011;5118;48.570;7.916;2024-03-02T14:00:53;2.30;;;2.10;;
10154;SDS011;5118;48.570;7.916;2024-03-02T14:03:25;1.67;;;1.58;;
10154;SDS011;5118;48.570;7.916;2024-03-02T14:05:57;3.53;;;3.22;;
10154;SDS011;5118;48.570;7.916;2024-03-02T14:08:25;2.33;;;2.15;;
10154;SDS011;5118;48.570;7.916;2024-03-02T14:10:54;1.85;;;1.60;;
10154;SDS011;5118;48.570;7.916;2024-03-02T14:13:26;0.90;;;0.90;;
10154;SDS011;5118;48.570;7.916;2024-03-02T14:15:55;2.10;;;2.00;;
10154;SDS011;5118;48.570;7.916;2024-03-02T14:18:26;2.28;;;1.30;;
10154;SDS011;5118;48.570;7.916;2024-03-02T14:20:54;1.05;;;0.95;;
10154;SDS011;5118;48.570;7.916;2024-03-02T14:23:23;0.85;;;0.85;;
10154;SDS011;5118;48.570;7.916;2024-03-02T14:25:52;0.93;;;0.93;;
10154;SDS011;5118;48.570;7.916;2024-03-02T14:28:20;2.53;;;1.20;;
10154;SDS011;5118;48.570;7.916;2024-03-02T14:31:09;1.30;;;1.20;;
10154;SDS011;5118;48.570;7.916;2024-03-02T14:33:39;1.10;;;1.10;;
10154;SDS011;5118;48.570;7.916;2024-03-02T14:36:09;3.15;;;1.48;;
10154;SDS011;5118;48.570;7.916;2024-03-02T14:38:39;1.55;;;1.05;;
10154;SDS011;5118;48.570;7.916;2024-03-02T14:41:08;1.75;;;1.65;;
10154;SDS011;5118;48.570;7.916;2024-03-02T14:43:36;1.15;;;1.13;;
10154;SDS011;5118;48.570;7.916;2024-03-02T14:46:05;1.83;;;1.50;;
10154;SDS011;5118;48.570;7.916;2024-03-02T14:48:36;2.35;;;1.15;;
10154;SDS011;5118;48.570;7.916;2024-03-02T14:51:06;2.13;;;1.10;;
10154;SDS011;5118;48.570;7.916;2024-03-02T14:53:34;1.30;;;1.20;;
10154;SDS011;5118;48.570;7.916;2024-03-02T14:56:05;1.80;;;1.00;;
10154;SDS011;5118;48.570;7.916;2024-03-02T14:58:34;1.50;;;1.40;;
10154;SDS011;5118;48.570;7.916;2024-03-02T15:01:04;3.63;;;1.40;;
10154;SDS011;5118;48.570;7.916;2024-03-02T15:03:33;2.30;;;1.80;;
10154;SDS011;5118;48.570;7.916;2024-03-02T15:06:03;1.42;;;1.27;;
10154;SDS011;5118;48.570;7.916;2024-03-02T15:08:35;1.40;;;1.30;;
10154;SDS011;5118;48.570;7.916;2024-03-02T15:11:03;1.50;;;1.13;;
10154;SDS011;5118;48.570;7.916;2024-03-02T15:13:32;1.92;;;1.20;;
10154;SDS011;5118;48.570;7.916;2024-03-02T15:16:01;1.40;;;1.30;;